Shokyu Maru — JG5288 — position and weather

sailwx.info

Track history (hours):
 
Tides and Currents Weather Stations Pressure Air Temp Water Temp Dewpoint Dewpoint Depression Visibility Wind Speed Wind Dir Waves Ship Positions

Shokyu Maru

Last reported at 2014-Dec-21 23:16 UTC. Time now 2014-Dec-22 00:37 UTC.
Position N 35°37' E 139°57'.

Length 91 m; draft 4.3 m.

Type: Tanker. MMSI: 431000253.

Date/timePositionNaut miles runAvg speedWind from/ knotsBaromVisibWave heightAir tempDewpointWater temp
2014-Dec-21 23:16N 35°37' E 139°57'2 2.3
2014-Dec-21 22:25N 35°36' E 139°55'0 0.0
2014-Dec-21 21:19N 35°36' E 139°55'0 0.1
2014-Dec-21 20:31N 35°36' E 139°55'0 0.1
2014-Dec-21 19:31N 35°36' E 139°55'0 0.0
2014-Dec-21 18:22N 35°36' E 139°55'0 0.1
2014-Dec-21 17:31N 35°36' E 139°55'0 0.0
2014-Dec-21 16:22N 35°36' E 139°55'0 0.0
2014-Dec-21 12:19N 35°36' E 139°55'0 0.0
2014-Dec-21 11:31N 35°36' E 139°55'7 7.7
2014-Dec-21 10:34N 35°30' E 139°49'2 2.0
2014-Dec-21 09:26N 35°31' E 139°46'0 0.0
2014-Dec-21 06:20N 35°31' E 139°46'0 0.0
2014-Dec-21 05:17N 35°31' E 139°46'0 0.5
2014-Dec-21 04:33N 35°31' E 139°46'4 3.5
2014-Dec-21 03:33N 35°27' E 139°46'1110.2
2014-Dec-21 02:30N 35°35' E 139°55'6 1.4
2014-Dec-20 22:10N 35°40' E 139°57'5 2.5
2014-Dec-20 20:09N 35°36' E 139°55'0 0.0
2014-Dec-20 19:33N 35°36' E 139°55'0 0.0
2014-Dec-20 18:32N 35°36' E 139°55'0 0.0
2014-Dec-20 17:34N 35°36' E 139°55'0 0.0
2014-Dec-20 16:33N 35°36' E 139°55'0 0.0
2014-Dec-20 15:32N 35°36' E 139°55'0 0.0
2014-Dec-20 14:30N 35°36' E 139°55'0 0.0
2014-Dec-20 11:29N 35°36' E 139°55'2 0.2
2014-Dec-20 04:32N 35°35' E 139°57'5 1.2
2014-Dec-20 00:32N 35°31' E 140°00'6 5.7
2014-Dec-19 23:32N 35°34' E 139°55'0 0.2
2014-Dec-19 22:07N 35°35' E 139°55'0 0.0
2014-Dec-19 19:10N 35°35' E 139°55'0 0.0
2014-Dec-19 16:21N 35°35' E 139°55'0 0.1
2014-Dec-19 15:07N 35°35' E 139°55'0 0.1
2014-Dec-19 14:08N 35°35' E 139°55'0 0.0
2014-Dec-19 13:33N 35°35' E 139°55'0 0.0
2014-Dec-19 12:33N 35°35' E 139°55'0 0.0
2014-Dec-19 11:18N 35°35' E 139°55'0 0.1
2014-Dec-19 10:27N 35°35' E 139°55'6 0.5
2014-Dec-18 22:33N 35°32' E 140°02'6 3.0
2014-Dec-18 20:29N 35°35' E 139°55'0 0.1
2014-Dec-18 18:29N 35°35' E 139°55'0 0.0
2014-Dec-18 17:23N 35°35' E 139°55'0 0.1
2014-Dec-18 16:32N 35°35' E 139°55'0 0.0
2014-Dec-18 15:29N 35°35' E 139°55'0 0.0
2014-Dec-18 14:26N 35°35' E 139°55'2 0.2
2014-Dec-18 05:14N 35°36' E 139°57'2 1.0
2014-Dec-18 03:10N 35°35' E 139°55'610.5
2014-Dec-18 02:33N 35°31' E 139°49'2 1.1
2014-Dec-18 00:27N 35°31' E 139°46'0 0.0
2014-Dec-17 23:33N 35°31' E 139°46'0 0.0
2014-Dec-17 22:33N 35°31' E 139°46'0 0.0
2014-Dec-17 21:30N 35°31' E 139°46'5 4.8
2014-Dec-17 20:33N 35°28' E 139°43'6 5.6
2014-Dec-17 19:32N 35°29' E 139°49'0 0.1
2014-Dec-17 18:33N 35°29' E 139°49'0 0.1
2014-Dec-17 17:32N 35°29' E 139°49'0 0.0
2014-Dec-17 16:28N 35°29' E 139°49'0 0.0
2014-Dec-17 15:33N 35°29' E 139°49'0 0.0
2014-Dec-17 14:30N 35°29' E 139°49'0 0.0
2014-Dec-17 13:29N 35°29' E 139°49'0 0.0
2014-Dec-17 12:33N 35°29' E 139°49'0 0.0
2014-Dec-17 11:20N 35°29' E 139°49'0 0.0
2014-Dec-17 10:33N 35°29' E 139°49'0 0.0
2014-Dec-17 09:33N 35°29' E 139°49'0 0.0
2014-Dec-17 08:29N 35°29' E 139°49'0 0.0
2014-Dec-17 07:33N 35°29' E 139°49'0 0.0
2014-Dec-17 06:32N 35°29' E 139°49'5 4.5
2014-Dec-17 05:30N 35°32' E 139°53'2 0.3
2014-Dec-16 22:25N 35°34' E 139°55'0 0.0
2014-Dec-16 15:05N 35°34' E 139°55'2 0.3
2014-Dec-16 07:31N 35°33' E 139°58'4 0.9
2014-Dec-16 03:25N 35°30' E 140°01'8 1.2
2014-Dec-15 21:21N 35°37' E 139°58'3 0.5
2014-Dec-15 15:20N 35°35' E 139°55'0 0.0
2014-Dec-15 14:26N 35°35' E 139°55'0 0.0
2014-Dec-15 12:20N 35°35' E 139°55'0 0.0
2014-Dec-15 11:29N 35°35' E 139°55'4 3.6
2014-Dec-15 10:19N 35°33' E 139°60'1 0.2
2014-Dec-15 02:32N 35°35' E 139°59'3 0.6
2014-Dec-14 21:22N 35°38' E 139°58'3 3.7
2014-Dec-14 20:30N 35°35' E 139°55'0 0.0
2014-Dec-14 19:21N 35°35' E 139°55'3 0.4
2014-Dec-14 10:32N 35°33' E 139°58'4 1.0
2014-Dec-14 06:29N 35°30' E 140°01'10 2.1
2014-Dec-14 01:32N 35°40' E 139°57'5 0.3
2014-Dec-13 10:05N 35°35' E 139°55'0 0.1
2014-Dec-13 09:33N 35°35' E 139°55'9 8.7
2014-Dec-13 08:32N 35°30' E 139°46'1 0.9
2014-Dec-13 07:32N 35°30' E 139°45'0 0.0
2014-Dec-13 06:32N 35°30' E 139°45'0 0.0
2014-Dec-13 05:32N 35°30' E 139°45'0 0.0
2014-Dec-13 04:32N 35°30' E 139°45'3 3.3
2014-Dec-13 03:33N 35°27' E 139°45'3 3.0
2014-Dec-13 02:33N 35°28' E 139°48'9 9.4
2014-Dec-13 01:33N 35°35' E 139°56'4 0.9
2014-Dec-12 21:26N 35°38' E 139°58'4 0.9
2014-Dec-12 17:30N 35°36' E 139°55'0 0.0
2014-Dec-12 16:27N 35°36' E 139°55'0 0.0
2014-Dec-12 15:33N 35°36' E 139°55'0 0.0
2014-Dec-12 14:33N 35°36' E 139°55'0 0.0
2014-Dec-12 11:18N 35°36' E 139°55'0 0.0
2014-Dec-12 08:24N 35°36' E 139°55'0 0.0
2014-Dec-12 05:27N 35°36' E 139°55'4 4.9
2014-Dec-12 04:33N 35°32' E 139°52'5 3.7
2014-Dec-12 03:17N 35°31' E 139°46'0 0.0
2014-Dec-12 02:23N 35°31' E 139°46'1 0.3
2014-Dec-11 23:33N 35°30' E 139°46'  
Track history (hours):
 
Tides and Currents Weather Stations Pressure Air Temp Water Temp Dewpoint Dewpoint Depression Visibility Wind Speed Wind Dir Waves Ship Positions

Shokyu Maru

Last reported at 2014-Dec-21 23:16 UTC. Time now 2014-Dec-22 00:37 UTC.
Position N 35°37' E 139°57'.

Length 91 m; draft 4.3 m.

Type: Tanker. MMSI: 431000253.

Date/timePositionNaut miles runAvg speedWind from/ knotsBaromVisibWave heightAir tempDewpointWater temp
2014-Dec-21 23:16N 35°37' E 139°57'2 2.3
2014-Dec-21 22:25N 35°36' E 139°55'0 0.0
2014-Dec-21 21:19N 35°36' E 139°55'0 0.1
2014-Dec-21 20:31N 35°36' E 139°55'0 0.1
2014-Dec-21 19:31N 35°36' E 139°55'0 0.0
2014-Dec-21 18:22N 35°36' E 139°55'0 0.1
2014-Dec-21 17:31N 35°36' E 139°55'0 0.0
2014-Dec-21 16:22N 35°36' E 139°55'0 0.0
2014-Dec-21 12:19N 35°36' E 139°55'0 0.0
2014-Dec-21 11:31N 35°36' E 139°55'7 7.7
2014-Dec-21 10:34N 35°30' E 139°49'2 2.0
2014-Dec-21 09:26N 35°31' E 139°46'0 0.0
2014-Dec-21 06:20N 35°31' E 139°46'0 0.0
2014-Dec-21 05:17N 35°31' E 139°46'0 0.5
2014-Dec-21 04:33N 35°31' E 139°46'4 3.5
2014-Dec-21 03:33N 35°27' E 139°46'1110.2
2014-Dec-21 02:30N 35°35' E 139°55'6 1.4
2014-Dec-20 22:10N 35°40' E 139°57'5 2.5
2014-Dec-20 20:09N 35°36' E 139°55'0 0.0
2014-Dec-20 19:33N 35°36' E 139°55'0 0.0
2014-Dec-20 18:32N 35°36' E 139°55'0 0.0
2014-Dec-20 17:34N 35°36' E 139°55'0 0.0
2014-Dec-20 16:33N 35°36' E 139°55'0 0.0
2014-Dec-20 15:32N 35°36' E 139°55'0 0.0
2014-Dec-20 14:30N 35°36' E 139°55'0 0.0
2014-Dec-20 11:29N 35°36' E 139°55'2 0.2
2014-Dec-20 04:32N 35°35' E 139°57'5 1.2
2014-Dec-20 00:32N 35°31' E 140°00'6 5.7
2014-Dec-19 23:32N 35°34' E 139°55'0 0.2
2014-Dec-19 22:07N 35°35' E 139°55'0 0.0
2014-Dec-19 19:10N 35°35' E 139°55'0 0.0
2014-Dec-19 16:21N 35°35' E 139°55'0 0.1
2014-Dec-19 15:07N 35°35' E 139°55'0 0.1
2014-Dec-19 14:08N 35°35' E 139°55'0 0.0
2014-Dec-19 13:33N 35°35' E 139°55'0 0.0
2014-Dec-19 12:33N 35°35' E 139°55'0 0.0
2014-Dec-19 11:18N 35°35' E 139°55'0 0.1
2014-Dec-19 10:27N 35°35' E 139°55'6 0.5
2014-Dec-18 22:33N 35°32' E 140°02'6 3.0
2014-Dec-18 20:29N 35°35' E 139°55'0 0.1
2014-Dec-18 18:29N 35°35' E 139°55'0 0.0
2014-Dec-18 17:23N 35°35' E 139°55'0 0.1
2014-Dec-18 16:32N 35°35' E 139°55'0 0.0
2014-Dec-18 15:29N 35°35' E 139°55'0 0.0
2014-Dec-18 14:26N 35°35' E 139°55'2 0.2
2014-Dec-18 05:14N 35°36' E 139°57'2 1.0
2014-Dec-18 03:10N 35°35' E 139°55'610.5
2014-Dec-18 02:33N 35°31' E 139°49'2 1.1
2014-Dec-18 00:27N 35°31' E 139°46'0 0.0
2014-Dec-17 23:33N 35°31' E 139°46'0 0.0
2014-Dec-17 22:33N 35°31' E 139°46'0 0.0
2014-Dec-17 21:30N 35°31' E 139°46'5 4.8
2014-Dec-17 20:33N 35°28' E 139°43'6 5.6
2014-Dec-17 19:32N 35°29' E 139°49'0 0.1
2014-Dec-17 18:33N 35°29' E 139°49'0 0.1
2014-Dec-17 17:32N 35°29' E 139°49'0 0.0
2014-Dec-17 16:28N 35°29' E 139°49'0 0.0
2014-Dec-17 15:33N 35°29' E 139°49'0 0.0
2014-Dec-17 14:30N 35°29' E 139°49'0 0.0
2014-Dec-17 13:29N 35°29' E 139°49'0 0.0
2014-Dec-17 12:33N 35°29' E 139°49'0 0.0
2014-Dec-17 11:20N 35°29' E 139°49'0 0.0
2014-Dec-17 10:33N 35°29' E 139°49'0 0.0
2014-Dec-17 09:33N 35°29' E 139°49'0 0.0
2014-Dec-17 08:29N 35°29' E 139°49'0 0.0
2014-Dec-17 07:33N 35°29' E 139°49'0 0.0
2014-Dec-17 06:32N 35°29' E 139°49'5 4.5
2014-Dec-17 05:30N 35°32' E 139°53'2 0.3
2014-Dec-16 22:25N 35°34' E 139°55'0 0.0
2014-Dec-16 15:05N 35°34' E 139°55'2 0.3
2014-Dec-16 07:31N 35°33' E 139°58'4 0.9
2014-Dec-16 03:25N 35°30' E 140°01'8 1.2
2014-Dec-15 21:21N 35°37' E 139°58'3 0.5
2014-Dec-15 15:20N 35°35' E 139°55'0 0.0
2014-Dec-15 14:26N 35°35' E 139°55'0 0.0
2014-Dec-15 12:20N 35°35' E 139°55'0 0.0
2014-Dec-15 11:29N 35°35' E 139°55'4 3.6
2014-Dec-15 10:19N 35°33' E 139°60'1 0.2
2014-Dec-15 02:32N 35°35' E 139°59'3 0.6
2014-Dec-14 21:22N 35°38' E 139°58'3 3.7
2014-Dec-14 20:30N 35°35' E 139°55'0 0.0
2014-Dec-14 19:21N 35°35' E 139°55'3 0.4
2014-Dec-14 10:32N 35°33' E 139°58'4 1.0
2014-Dec-14 06:29N 35°30' E 140°01'10 2.1
2014-Dec-14 01:32N 35°40' E 139°57'5 0.3
2014-Dec-13 10:05N 35°35' E 139°55'0 0.1
2014-Dec-13 09:33N 35°35' E 139°55'9 8.7
2014-Dec-13 08:32N 35°30' E 139°46'1 0.9
2014-Dec-13 07:32N 35°30' E 139°45'0 0.0
2014-Dec-13 06:32N 35°30' E 139°45'0 0.0
2014-Dec-13 05:32N 35°30' E 139°45'0 0.0
2014-Dec-13 04:32N 35°30' E 139°45'3 3.3
2014-Dec-13 03:33N 35°27' E 139°45'3 3.0
2014-Dec-13 02:33N 35°28' E 139°48'9 9.4
2014-Dec-13 01:33N 35°35' E 139°56'4 0.9
2014-Dec-12 21:26N 35°38' E 139°58'4 0.9
2014-Dec-12 17:30N 35°36' E 139°55'0 0.0
2014-Dec-12 16:27N 35°36' E 139°55'0 0.0
2014-Dec-12 15:33N 35°36' E 139°55'0 0.0
2014-Dec-12 14:33N 35°36' E 139°55'0 0.0
2014-Dec-12 11:18N 35°36' E 139°55'0 0.0
2014-Dec-12 08:24N 35°36' E 139°55'0 0.0
2014-Dec-12 05:27N 35°36' E 139°55'4 4.9
2014-Dec-12 04:33N 35°32' E 139°52'5 3.7
2014-Dec-12 03:17N 35°31' E 139°46'0 0.0
2014-Dec-12 02:23N 35°31' E 139°46'1 0.3
2014-Dec-11 23:33N 35°30' E 139°46'  

Dump ship's entire track history